Time;durP1;ratioP1;P1;durP2;ratioP2;P2;SDS_P1;SDS_P2;PMS_P1;PMS_P2;Temp;Humidity;BMP_temperature;BMP_pressure;BME280_temperature;BME280_humidity;BME280_pressure;Samples;Min_cycle;Max_cycle;Signal;HPM_P1;HPM_P2
2022/05/05 00:01:14;;;;;;;11.80;9.70;;;;;;;11.54;49.94;98103.96;104899;1288;24162;-81
2022/05/05 00:03:42;;;;;;;10.50;8.90;;;;;;;11.48;50.13;98105.48;104860;1288;22645;-82
2022/05/05 00:06:10;;;;;;;12.20;9.50;;;;;;;11.41;50.25;98103.79;104788;1288;22572;-82
2022/05/05 00:08:38;;;;;;;15.50;9.60;;;;;;;11.33;50.34;98098.90;105076;1288;24295;-82
2022/05/05 00:14:44;;;;;;;10.40;9.30;;;;;;;11.22;50.58;98094.16;104845;1290;24373;-82
2022/05/05 00:17:12;;;;;;;11.40;9.80;;;;;;;11.16;50.68;98094.81;104873;1288;22635;-83
2022/05/05 00:19:42;;;;;;;10.90;9.10;;;;;;;11.12;50.99;98096.00;104860;1289;24452;-82
2022/05/05 00:22:11;;;;;;;11.40;9.40;;;;;;;11.10;51.07;98094.86;104905;1288;24385;-82
2022/05/05 00:24:39;;;;;;;10.70;9.50;;;;;;;11.07;51.09;98094.09;104905;1288;22883;-83
2022/05/05 00:27:09;;;;;;;10.60;9.30;;;;;;;11.05;51.33;98093.59;104887;1288;24643;-81
2022/05/05 00:29:37;;;;;;;10.70;8.60;;;;;;;11.03;51.48;98095.95;104862;1288;25440;-81
2022/05/05 00:32:05;;;;;;;10.10;9.00;;;;;;;11.02;51.32;98093.48;104995;1288;22899;-82
2022/05/05 00:34:33;;;;;;;11.60;10.10;;;;;;;11.00;51.41;98090.98;105144;1288;22806;-81
2022/05/05 00:37:01;;;;;;;11.10;9.30;;;;;;;10.99;51.44;98095.59;104981;1288;22554;-81
2022/05/05 00:39:29;;;;;;;13.60;9.20;;;;;;;10.97;51.50;98095.57;104892;1288;24235;-81
2022/05/05 00:41:59;;;;;;;11.40;10.20;;;;;;;10.95;51.49;98095.98;104851;1288;22573;-81
2022/05/05 00:44:27;;;;;;;10.80;9.60;;;;;;;10.92;51.52;98096.67;104860;1288;25500;-81
2022/05/05 00:46:55;;;;;;;11.50;8.90;;;;;;;10.90;51.82;98094.88;104832;1288;22573;-80
2022/05/05 00:49:23;;;;;;;14.40;9.80;;;;;;;10.86;51.77;98095.05;104866;1287;22649;-80
2022/05/05 00:51:50;;;;;;;12.70;11.50;;;;;;;10.84;51.93;98097.30;104838;1288;22701;-81
2022/05/05 00:54:18;;;;;;;13.90;10.90;;;;;;;10.79;51.98;98098.40;105251;1288;22563;-81
2022/05/05 00:56:46;;;;;;;12.20;10.40;;;;;;;10.73;52.27;98097.31;106108;1288;23957;-81
2022/05/05 00:59:15;;;;;;;13.50;11.00;;;;;;;10.66;52.05;98095.86;105563;1288;22552;-81
2022/05/05 01:01:43;;;;;;;11.80;10.60;;;;;;;10.60;52.11;98094.95;104905;1288;22766;-81
2022/05/05 01:04:11;;;;;;;11.40;10.20;;;;;;;10.54;52.40;98096.33;104972;1288;25373;-81
2022/05/05 01:06:39;;;;;;;11.70;10.50;;;;;;;10.47;52.74;98098.80;105085;1288;24293;-81
2022/05/05 01:09:07;;;;;;;14.00;10.80;;;;;;;10.41;52.42;98095.29;104840;1288;25381;-82
2022/05/05 01:11:35;;;;;;;11.20;10.00;;;;;;;10.35;52.64;98093.80;104854;1288;22572;-80
2022/05/05 01:14:03;;;;;;;12.80;9.90;;;;;;;10.29;52.56;98094.54;104832;1288;25310;-81
2022/05/05 01:16:31;;;;;;;12.20;10.30;;;;;;;10.24;52.77;98098.73;104859;1288;25471;-81
2022/05/05 01:18:59;;;;;;;16.10;10.90;;;;;;;10.18;52.98;98095.52;104840;1288;24111;-81
2022/05/05 01:21:27;;;;;;;11.70;9.90;;;;;;;10.12;52.90;98098.36;104866;1288;23379;-80
2022/05/05 01:23:55;;;;;;;12.10;10.40;;;;;;;10.07;53.07;98099.93;104817;1288;22636;-81
2022/05/05 01:29:11;;;;;;;13.30;11.10;;;;;;;9.93;53.26;98098.39;104808;1288;22590;-81
2022/05/05 01:31:40;;;;;;;12.80;10.90;;;;;;;9.83;53.28;98103.91;104853;1288;22725;-79
2022/05/05 01:34:08;;;;;;;18.30;10.80;;;;;;;9.72;53.59;98101.36;104810;1288;22611;-80
2022/05/05 01:36:36;;;;;;;13.10;11.70;;;;;;;9.60;53.46;98098.05;104821;1288;22600;-82
2022/05/05 01:39:04;;;;;;;11.90;10.70;;;;;;;9.52;53.49;98100.63;104779;1288;22582;-81
2022/05/05 01:41:31;;;;;;;14.50;13.00;;;;;;;9.44;54.08;98099.47;104818;1288;25327;-81
2022/05/05 01:44:24;;;;;;;14.00;12.60;;;;;;;9.41;54.29;98096.29;104793;1288;25371;-81
2022/05/05 01:46:53;;;;;;;12.60;11.30;;;;;;;9.41;54.23;98100.09;104756;1290;22657;-81
2022/05/05 01:49:21;;;;;;;15.60;12.10;;;;;;;9.39;54.52;98098.62;104810;1288;25532;-82
2022/05/05 01:51:49;;;;;;;15.20;11.70;;;;;;;9.37;54.61;98095.73;104818;1288;22866;-80
2022/05/05 01:54:17;;;;;;;13.40;12.00;;;;;;;9.34;54.55;98094.85;104802;1288;24255;-81
2022/05/05 01:56:46;;;;;;;13.10;11.70;;;;;;;9.31;54.66;98099.67;104792;1290;22620;-80
2022/05/05 01:59:14;;;;;;;13.40;12.10;;;;;;;9.27;54.73;98102.50;104825;1288;22575;-81
2022/05/05 02:01:41;;;;;;;12.40;11.10;;;;;;;9.24;55.06;98100.86;104853;1288;23235;-81
2022/05/05 02:04:09;;;;;;;19.90;17.90;;;;;;;9.20;54.70;98101.98;104800;1288;22556;-80
2022/05/05 02:06:37;;;;;;;17.70;15.80;;;;;;;9.16;54.80;98104.40;104827;1288;22717;-80
2022/05/05 02:09:06;;;;;;;22.90;20.70;;;;;;;9.13;55.00;98103.73;104847;1288;22599;-81
2022/05/05 02:11:37;;;;;;;18.50;16.70;;;;;;;9.10;55.20;98100.52;104807;1288;24101;-81
2022/05/05 02:14:05;;;;;;;17.20;15.50;;;;;;;9.05;55.27;98101.64;104845;1288;26579;-81
2022/05/05 02:16:33;;;;;;;19.10;17.30;;;;;;;9.02;55.10;98105.70;104873;1288;25668;-80
2022/05/05 02:19:01;;;;;;;15.30;13.70;;;;;;;9.00;55.35;98106.11;104872;1288;25303;-80
2022/05/05 02:21:29;;;;;;;15.30;13.30;;;;;;;9.00;55.47;98105.61;104891;1288;22715;-82
2022/05/05 02:23:57;;;;;;;15.40;13.90;;;;;;;9.00;55.69;98109.65;104835;1288;22562;-82
2022/05/05 02:26:24;;;;;;;16.30;14.60;;;;;;;8.97;55.88;98108.60;104803;1290;26555;-81
2022/05/05 02:28:52;;;;;;;20.00;17.30;;;;;;;8.94;56.03;98104.27;104811;1288;22606;-81
2022/05/05 02:31:21;;;;;;;17.00;15.30;;;;;;;8.94;56.12;98103.36;104868;1288;22572;-81
2022/05/05 02:33:49;;;;;;;15.30;13.80;;;;;;;8.93;55.95;98104.67;104843;1288;25539;-81
2022/05/05 02:39:03;;;;;;;15.60;13.70;;;;;;;8.90;56.17;98103.12;104835;1288;22865;-81
2022/05/05 02:41:36;;;;;;;15.60;14.00;;;;;;;8.85;56.27;98101.66;104801;1288;22641;-82
2022/05/05 02:44:05;;;;;;;15.40;13.90;;;;;;;8.80;56.73;98103.70;105037;1288;25664;-81
2022/05/05 02:46:33;;;;;;;15.20;13.70;;;;;;;8.75;56.59;98103.10;104882;1288;24198;-80
2022/05/05 02:49:01;;;;;;;20.40;18.30;;;;;;;8.68;56.69;98100.68;104758;1288;22694;-81
2022/05/05 02:51:29;;;;;;;16.00;14.20;;;;;;;8.58;56.78;98101.08;104852;1288;25425;-81
2022/05/05 02:56:43;;;;;;;17.30;15.60;;;;;;;8.38;57.14;98106.77;104766;1290;24252;-81
2022/05/05 02:59:11;;;;;;;14.90;13.40;;;;;;;8.37;57.25;98108.56;104802;1288;23290;-81
2022/05/05 03:01:39;;;;;;;16.10;13.10;;;;;;;8.32;57.32;98111.48;104772;1288;22680;-81
2022/05/05 03:04:07;;;;;;;15.50;13.80;;;;;;;8.25;57.54;98115.79;104810;1288;22632;-81
2022/05/05 03:06:35;;;;;;;16.30;14.40;;;;;;;8.17;57.56;98116.26;104870;1288;23963;-81
2022/05/05 03:09:03;;;;;;;16.40;14.70;;;;;;;8.09;57.63;98119.73;104832;1288;24340;-80
2022/05/05 03:11:32;;;;;;;16.50;13.70;;;;;;;8.07;58.08;98126.45;104834;1290;24470;-81
2022/05/05 03:14:00;;;;;;;18.10;16.20;;;;;;;8.07;58.31;98128.00;104940;1288;25348;-81
2022/05/05 03:16:28;;;;;;;16.50;14.90;;;;;;;8.10;58.33;98131.38;104840;1288;22769;-81
2022/05/05 03:18:56;;;;;;;17.70;15.70;;;;;;;8.12;58.53;98126.38;104991;1288;24313;-81
2022/05/05 03:21:24;;;;;;;17.40;15.70;;;;;;;8.13;58.50;98124.27;105060;1288;24468;-81
2022/05/05 03:23:52;;;;;;;19.60;17.60;;;;;;;8.12;58.24;98125.94;105001;1291;26016;-82
2022/05/05 03:26:19;;;;;;;17.20;15.50;;;;;;;8.16;58.76;98126.98;104963;1288;24373;-82
2022/05/05 03:28:47;;;;;;;25.50;23.10;;;;;;;8.23;58.66;98131.73;104885;1288;22569;-82
2022/05/05 03:31:15;;;;;;;18.50;16.90;;;;;;;8.29;58.98;98136.00;104847;1288;22643;-81
2022/05/05 03:33:43;;;;;;;14.80;13.30;;;;;;;8.32;59.09;98134.41;104866;1288;22558;-81
2022/05/05 03:36:11;;;;;;;16.10;14.60;;;;;;;8.32;59.51;98135.70;104845;1288;22920;-81
2022/05/05 03:39:04;;;;;;;18.40;16.40;;;;;;;8.30;59.20;98139.11;104877;1288;22633;-84
2022/05/05 03:41:32;;;;;;;19.70;17.80;;;;;;;8.26;59.27;98134.40;104712;1288;22899;-80
2022/05/05 03:44:04;;;;;;;16.60;15.00;;;;;;;8.22;59.59;98136.09;104867;1288;22649;-80
2022/05/05 03:46:33;;;;;;;16.80;14.30;;;;;;;8.19;59.48;98138.20;104835;1288;22744;-80
2022/05/05 03:49:01;;;;;;;15.30;13.70;;;;;;;8.24;59.73;98142.26;104848;1288;24276;-80
2022/05/05 03:51:28;;;;;;;15.90;14.40;;;;;;;8.33;59.87;98146.00;104920;1287;22562;-81
2022/05/05 03:53:56;;;;;;;17.80;16.00;;;;;;;8.44;60.13;98151.13;104871;1288;24237;-80
2022/05/05 03:56:24;;;;;;;18.00;15.70;;;;;;;8.55;60.32;98148.91;104845;1288;22722;-81
2022/05/05 03:58:52;;;;;;;17.00;15.40;;;;;;;8.65;60.33;98145.83;104881;1288;22651;-81
2022/05/05 04:01:20;;;;;;;16.40;14.60;;;;;;;8.74;60.48;98145.44;104904;1288;23277;-81
2022/05/05 04:03:48;;;;;;;18.80;14.90;;;;;;;8.83;60.26;98150.41;104857;1288;25433;-81
2022/05/05 04:06:18;;;;;;;16.30;14.60;;;;;;;8.91;60.06;98149.83;104836;1289;24547;-80
2022/05/05 04:08:46;;;;;;;16.60;14.80;;;;;;;8.99;60.21;98148.57;104846;1288;22896;-81
2022/05/05 04:11:14;;;;;;;17.90;14.50;;;;;;;9.07;60.41;98153.08;104836;1288;22664;-80
2022/05/05 04:13:43;;;;;;;17.40;14.60;;;;;;;9.16;60.38;98151.66;104874;1288;25676;-80
2022/05/05 04:16:11;;;;;;;15.80;14.20;;;;;;;9.20;60.11;98154.67;104836;1288;24087;-81
2022/05/05 04:18:39;;;;;;;16.00;14.40;;;;;;;9.25;60.06;98154.40;104853;1288;25539;-81
2022/05/05 04:21:08;;;;;;;15.00;13.50;;;;;;;9.31;60.24;98149.09;104889;1288;24204;-82
2022/05/05 04:23:37;;;;;;;16.50;14.80;;;;;;;9.37;60.10;98151.23;105271;1288;22669;-83
2022/05/05 04:26:11;;;;;;;17.20;14.70;;;;;;;9.43;60.40;98153.60;104907;1288;22754;-86
2022/05/05 04:28:42;;;;;;;14.50;12.90;;;;;;;9.50;60.48;98152.12;104901;1288;22544;-83
2022/05/05 04:31:12;;;;;;;14.70;13.10;;;;;;;9.61;60.12;98155.68;105710;1288;22556;-82
2022/05/05 04:33:41;;;;;;;14.80;12.80;;;;;;;9.68;60.38;98156.19;104906;1288;22577;-82
2022/05/05 04:36:11;;;;;;;15.00;13.50;;;;;;;9.75;60.37;98152.77;104814;1288;22706;-81
2022/05/05 04:38:39;;;;;;;17.70;12.90;;;;;;;9.82;60.34;98155.05;104899;1288;22715;-81
2022/05/05 04:41:07;;;;;;;15.70;13.50;;;;;;;9.88;60.29;98156.30;104842;1288;22572;-81
2022/05/05 04:43:35;;;;;;;15.90;13.10;;;;;;;9.90;60.29;98157.27;104960;1288;24018;-80
2022/05/05 04:46:03;;;;;;;17.50;14.50;;;;;;;9.91;60.23;98158.17;104857;1288;22645;-82
2022/05/05 04:48:31;;;;;;;16.30;14.40;;;;;;;9.93;60.14;98161.91;104893;1288;24345;-82
2022/05/05 04:50:59;;;;;;;18.90;14.20;;;;;;;9.94;60.54;98163.69;104865;1288;22554;-82
2022/05/05 04:53:27;;;;;;;17.80;16.10;;;;;;;9.98;60.24;98175.91;104889;1288;22899;-82
2022/05/05 04:55:54;;;;;;;20.80;18.70;;;;;;;10.03;60.37;98173.20;104889;1288;22894;-82
2022/05/05 04:58:23;;;;;;;20.80;18.90;;;;;;;10.08;60.16;98171.38;104876;1286;22570;-82
2022/05/05 05:00:53;;;;;;;19.70;17.70;;;;;;;10.14;60.49;98170.22;104887;1288;22718;-82
2022/05/05 05:03:33;;;;;;;17.80;16.10;;;;;;;10.19;60.19;98174.02;104858;1288;22552;-82
2022/05/05 05:06:06;;;;;;;18.90;16.80;;;;;;;10.22;60.20;98179.02;104851;1288;22676;-82
2022/05/05 05:08:34;;;;;;;15.90;14.30;;;;;;;10.24;60.28;98179.20;104940;1288;23254;-81
2022/05/05 05:11:03;;;;;;;17.80;15.00;;;;;;;10.27;60.02;98176.81;104924;1288;25383;-81
2022/05/05 05:13:31;;;;;;;17.60;15.90;;;;;;;10.29;60.30;98177.05;104847;1288;22711;-82
2022/05/05 05:15:59;;;;;;;15.90;14.20;;;;;;;10.33;60.45;98175.23;104829;1288;22664;-82
2022/05/05 05:18:29;;;;;;;17.20;14.60;;;;;;;10.39;60.71;98172.84;104880;1288;22659;-82
2022/05/05 05:20:57;;;;;;;18.00;14.70;;;;;;;10.48;60.23;98173.83;104864;1288;22717;-81
2022/05/05 05:23:25;;;;;;;16.80;15.00;;;;;;;10.57;60.64;98172.04;104806;1290;22586;-82
2022/05/05 05:25:52;;;;;;;18.20;16.00;;;;;;;10.66;60.55;98170.02;104853;1288;24249;-80
2022/05/05 05:28:20;;;;;;;19.70;15.70;;;;;;;10.77;60.48;98171.86;104891;1288;25434;-82
2022/05/05 05:30:48;;;;;;;16.10;14.40;;;;;;;10.86;60.53;98172.97;104907;1288;22699;-82
2022/05/05 05:33:17;;;;;;;17.30;14.80;;;;;;;10.95;60.43;98176.55;104951;1288;22740;-81
2022/05/05 05:35:45;;;;;;;17.20;14.30;;;;;;;11.02;60.19;98175.72;104889;1288;22646;-80
2022/05/05 05:38:17;;;;;;;16.60;14.90;;;;;;;11.12;60.36;98179.54;104887;1288;24374;-81
2022/05/05 05:40:45;;;;;;;17.80;15.40;;;;;;;11.20;60.24;98182.16;104870;1289;22580;-81
2022/05/05 05:43:43;;;;;;;18.50;16.60;;;;;;;11.31;60.39;98178.85;104882;1288;22902;-82
2022/05/05 05:46:11;;;;;;;17.70;15.40;;;;;;;11.47;60.35;98176.37;104892;1288;22546;-82
2022/05/05 05:48:39;;;;;;;16.10;14.50;;;;;;;11.59;60.40;98178.79;104879;1289;22591;-81
2022/05/05 05:51:07;;;;;;;20.00;15.90;;;;;;;11.73;60.20;98180.48;105012;1288;25524;-82
2022/05/05 05:53:35;;;;;;;19.00;15.30;;;;;;;11.86;60.25;98181.81;105295;1288;24296;-82
2022/05/05 05:56:03;;;;;;;20.10;18.00;;;;;;;11.99;60.13;98181.61;104939;1290;24425;-83
2022/05/05 05:58:31;;;;;;;21.80;17.40;;;;;;;12.13;60.24;98182.47;104954;1288;22684;-83
2022/05/05 06:00:59;;;;;;;17.90;16.10;;;;;;;12.26;60.07;98189.05;104924;1288;24242;-85
2022/05/05 06:06:13;;;;;;;19.20;17.30;;;;;;;12.52;59.87;98193.31;105755;1288;22579;-82
2022/05/05 06:08:41;;;;;;;19.20;17.30;;;;;;;12.59;59.96;98191.91;104909;1288;22764;-82
2022/05/05 06:11:11;;;;;;;22.60;17.20;;;;;;;12.71;59.79;98198.54;104896;1288;22543;-83
2022/05/05 06:13:39;;;;;;;19.80;16.30;;;;;;;12.79;59.82;98197.90;104949;1288;24392;-82
2022/05/05 06:16:09;;;;;;;18.70;15.50;;;;;;;12.91;59.77;98203.35;104812;1288;22554;-83
2022/05/05 06:18:38;;;;;;;19.80;15.60;;;;;;;13.05;59.68;98202.41;104909;1288;22592;-83
2022/05/05 06:21:07;;;;;;;15.90;14.50;;;;;;;13.17;59.68;98203.57;104918;1288;25677;-82
2022/05/05 06:23:37;;;;;;;16.80;15.10;;;;;;;13.30;59.64;98205.05;104875;1288;24363;-82
2022/05/05 06:26:05;;;;;;;17.30;15.60;;;;;;;13.44;61.73;98201.41;104975;1288;22747;-81
2022/05/05 06:28:34;;;;;;;17.00;15.20;;;;;;;13.56;60.78;98200.17;105178;1288;23102;-82
2022/05/05 06:31:01;;;;;;;17.20;15.50;;;;;;;13.70;60.12;98201.86;104918;1288;23148;-82
2022/05/05 06:33:29;;;;;;;18.90;15.20;;;;;;;13.85;59.65;98203.69;104893;1290;22654;-81
2022/05/05 06:35:57;;;;;;;17.50;15.80;;;;;;;13.99;59.38;98208.07;105282;1288;22903;-81
2022/05/05 06:38:25;;;;;;;18.00;16.20;;;;;;;14.14;59.47;98203.06;106115;1288;25416;-82
2022/05/05 06:40:53;;;;;;;17.30;15.50;;;;;;;14.26;59.30;98204.20;105641;1288;22566;-81
2022/05/05 06:43:21;;;;;;;17.50;15.70;;;;;;;14.41;59.32;98202.88;104958;1289;22569;-82
2022/05/05 06:45:49;;;;;;;18.30;16.40;;;;;;;14.54;59.01;98204.34;104918;1288;24461;-82
2022/05/05 06:48:20;;;;;;;17.40;15.70;;;;;;;14.66;59.05;98206.15;105088;1288;22667;-82
2022/05/05 06:50:49;;;;;;;20.20;18.10;;;;;;;14.79;58.75;98209.53;105106;1288;22872;-82
2022/05/05 06:53:17;;;;;;;18.10;16.20;;;;;;;14.92;58.70;98215.52;104827;1288;25439;-81
2022/05/05 06:55:46;;;;;;;15.60;14.00;;;;;;;15.04;58.68;98214.75;105252;1288;25505;-82
2022/05/05 06:58:15;;;;;;;15.20;13.60;;;;;;;15.16;58.53;98216.05;104944;1288;22631;-81
2022/05/05 07:03:29;;;;;;;13.80;11.90;;;;;;;15.38;58.06;98208.16;104854;1291;24220;-82
2022/05/05 07:05:57;;;;;;;14.10;12.70;;;;;;;15.50;58.01;98207.12;104873;1288;24168;-82
2022/05/05 07:08:25;;;;;;;13.20;11.90;;;;;;;15.65;57.95;98208.38;104859;1288;22643;-82
2022/05/05 07:10:53;;;;;;;12.10;10.90;;;;;;;15.81;57.72;98211.71;104943;1288;22871;-82
2022/05/05 07:13:25;;;;;;;13.40;11.10;;;;;;;15.96;57.82;98211.91;104956;1288;22754;-81
2022/05/05 07:15:53;;;;;;;13.60;10.90;;;;;;;16.11;57.66;98212.61;104931;1288;22601;-82
2022/05/05 07:18:21;;;;;;;8.90;7.90;;;;;;;16.23;57.03;98214.80;104851;1288;22561;-82
2022/05/05 07:20:50;;;;;;;8.70;7.90;;;;;;;16.29;56.92;98209.36;104881;1288;23771;-81
2022/05/05 07:23:18;;;;;;;11.70;9.80;;;;;;;16.37;57.01;98209.26;104905;1288;22797;-82
2022/05/05 07:25:46;;;;;;;11.20;9.60;;;;;;;16.48;56.92;98209.64;104876;1288;25253;-83
2022/05/05 07:28:15;;;;;;;11.50;9.70;;;;;;;16.63;57.03;98210.89;104888;1288;23390;-81
2022/05/05 07:30:44;;;;;;;11.70;8.70;;;;;;;16.76;56.55;98206.80;104926;1288;22594;-82
2022/05/05 07:33:12;;;;;;;10.50;8.90;;;;;;;16.85;56.44;98208.19;105218;1288;25250;-83
2022/05/05 07:35:40;;;;;;;12.40;8.40;;;;;;;16.97;56.11;98209.56;105376;1288;22574;-81
2022/05/05 07:38:08;;;;;;;13.70;9.00;;;;;;;17.05;55.62;98207.52;105165;1289;22877;-82
2022/05/05 07:40:37;;;;;;;14.90;8.80;;;;;;;17.13;55.62;98206.64;105648;1287;22575;-82
2022/05/05 07:43:07;;;;;;;9.70;8.40;;;;;;;17.22;55.60;98205.00;105634;1288;22557;-83
2022/05/05 07:45:34;;;;;;;9.40;8.50;;;;;;;17.32;55.49;98207.69;105355;1288;22664;-82
2022/05/05 07:48:03;;;;;;;9.30;8.30;;;;;;;17.42;55.27;98203.67;104827;1288;22608;-82
2022/05/05 07:50:31;;;;;;;10.20;8.60;;;;;;;17.53;55.13;98204.84;104868;1288;22586;-82
2022/05/05 07:52:59;;;;;;;12.40;7.80;;;;;;;17.63;54.77;98205.20;104826;1288;22730;-82
2022/05/05 07:55:27;;;;;;;8.90;7.90;;;;;;;17.75;54.68;98206.61;104890;1288;22562;-82
2022/05/05 07:57:54;;;;;;;13.30;8.50;;;;;;;17.87;54.60;98201.86;104900;1288;24069;-82
2022/05/05 08:00:22;;;;;;;9.90;8.50;;;;;;;17.97;54.21;98206.04;104837;1291;22730;-84
2022/05/05 08:02:50;;;;;;;9.40;8.50;;;;;;;18.08;54.10;98206.93;105413;1288;22669;-81
2022/05/05 08:05:18;;;;;;;14.90;9.10;;;;;;;18.13;53.61;98207.79;104969;1288;22554;-82
2022/05/05 08:07:49;;;;;;;11.90;9.10;;;;;;;18.18;53.26;98208.64;104893;1288;23488;-83
2022/05/05 08:10:18;;;;;;;10.60;8.10;;;;;;;18.22;53.07;98208.37;104850;1288;22629;-82
2022/05/05 08:12:47;;;;;;;9.90;8.10;;;;;;;18.21;52.79;98207.81;104895;1291;22603;-82
2022/05/05 08:15:18;;;;;;;10.60;7.70;;;;;;;18.23;52.63;98206.85;104779;1288;22651;-81
2022/05/05 08:17:47;;;;;;;9.30;7.60;;;;;;;18.31;52.09;98205.02;104929;1288;25366;-81
2022/05/05 08:20:16;;;;;;;9.70;8.60;;;;;;;18.40;51.41;98207.30;104910;1288;25389;-82
2022/05/05 08:22:44;;;;;;;8.30;7.20;;;;;;;18.47;51.47;98205.19;104857;1288;24115;-82
2022/05/05 08:30:47;;;;;;;8.40;7.50;;;;;;;18.90;51.33;98200.25;104863;1290;23035;-83
2022/05/05 08:33:15;;;;;;;12.40;8.80;;;;;;;19.04;50.10;98204.62;106488;1288;22947;-81
2022/05/05 08:35:44;;;;;;;12.20;9.30;;;;;;;19.09;49.27;98206.63;106370;1288;26675;-81
2022/05/05 08:38:13;;;;;;;13.50;9.70;;;;;;;19.12;48.64;98205.46;104907;1288;22590;-81
2022/05/05 08:40:41;;;;;;;11.50;8.20;;;;;;;19.07;48.49;98207.55;104842;1288;24243;-82
2022/05/05 08:43:10;;;;;;;10.50;8.60;;;;;;;19.02;49.26;98207.06;104847;1288;24221;-82
2022/05/05 08:45:39;;;;;;;9.20;7.30;;;;;;;19.02;48.74;98208.39;104926;1288;22555;-81
2022/05/05 08:48:11;;;;;;;10.40;7.70;;;;;;;19.04;48.75;98211.17;104907;1288;22550;-81
2022/05/05 08:50:41;;;;;;;11.80;7.40;;;;;;;19.08;48.89;98214.11;104919;1288;25251;-82
2022/05/05 08:53:13;;;;;;;8.60;7.40;;;;;;;19.16;48.51;98211.36;104804;1289;24307;-83
2022/05/05 08:56:09;;;;;;;9.00;8.10;;;;;;;19.18;48.61;98210.17;105400;1288;22629;-83
2022/05/05 08:58:37;;;;;;;9.50;7.60;;;;;;;19.23;47.74;98211.62;104839;1288;24239;-82
2022/05/05 09:01:04;;;;;;;9.50;7.00;;;;;;;19.24;47.66;98211.06;104943;1288;24924;-83
2022/05/05 09:03:33;;;;;;;10.70;7.50;;;;;;;19.23;47.80;98215.16;104835;1288;22828;-83
2022/05/05 09:06:01;;;;;;;8.90;7.40;;;;;;;19.26;48.12;98211.54;104844;1288;25387;-82
2022/05/05 09:08:31;;;;;;;8.80;7.30;;;;;;;19.29;47.77;98211.42;104803;1288;24294;-82
2022/05/05 09:11:02;;;;;;;8.50;7.60;;;;;;;19.29;47.51;98210.33;104868;1288;22718;-83
2022/05/05 09:13:37;;;;;;;9.90;7.20;;;;;;;19.32;47.38;98206.33;104871;1288;25495;-83
2022/05/05 09:16:06;;;;;;;13.60;8.30;;;;;;;19.40;47.79;98208.52;104913;1288;22723;-83
2022/05/05 09:18:34;;;;;;;9.00;7.10;;;;;;;19.60;47.64;98208.10;104804;1289;25435;-84
2022/05/05 09:21:06;;;;;;;12.00;8.00;;;;;;;19.71;46.41;98205.08;104848;1288;22829;-84
2022/05/05 09:26:35;;;;;;;10.00;7.70;;;;;;;19.71;45.24;98209.75;104842;1288;22900;-83
2022/05/05 09:29:19;;;;;;;8.90;7.70;;;;;;;19.70;45.61;98206.27;104867;1288;22551;-83
2022/05/05 09:31:48;;;;;;;44.00;31.30;;;;;;;19.73;44.72;98214.33;105015;1288;25364;-82
2022/05/05 09:34:18;;;;;;;12.30;10.60;;;;;;;19.72;44.47;98211.47;105102;1288;23458;-82
2022/05/05 09:36:47;;;;;;;9.30;7.70;;;;;;;19.64;44.52;98208.68;105173;1288;24235;-81
2022/05/05 09:39:15;;;;;;;8.90;7.90;;;;;;;19.56;44.96;98207.98;105072;1288;23772;-83
2022/05/05 09:41:46;;;;;;;9.20;7.70;;;;;;;19.53;44.89;98202.00;105035;1288;24266;-83
2022/05/05 09:44:16;;;;;;;21.40;13.40;;;;;;;19.56;44.59;98202.13;105069;1288;22787;-82
2022/05/05 09:46:44;;;;;;;10.10;7.90;;;;;;;19.62;44.80;98206.03;105111;1288;24815;-81
2022/05/05 09:49:17;;;;;;;10.00;7.10;;;;;;;19.69;44.46;98202.04;105102;1288;25494;-81
2022/05/05 09:57:40;;;;;;;8.90;5.60;;;;;;;20.00;43.95;98194.84;104988;1288;25317;-82
2022/05/05 10:06:02;;;;;;;9.50;6.70;;;;;;;20.47;43.91;98195.15;105108;1288;22579;-82
2022/05/05 10:08:38;;;;;;;7.30;6.50;;;;;;;20.57;43.91;98198.23;105099;1288;22561;-82
2022/05/05 10:11:07;;;;;;;7.50;6.30;;;;;;;20.71;43.60;98197.28;104978;1288;22704;-80
2022/05/05 10:13:38;;;;;;;9.80;7.50;;;;;;;20.87;43.18;98197.23;104864;1288;22598;-83
2022/05/05 10:16:07;;;;;;;9.30;6.70;;;;;;;21.01;41.97;98195.47;104949;1289;23280;-81
2022/05/05 10:18:38;;;;;;;8.00;6.60;;;;;;;20.95;41.11;98197.08;104761;1288;266970;-82
2022/05/05 10:21:19;;;;;;;7.70;6.80;;;;;;;20.87;40.89;98189.64;104905;1287;22691;-80
2022/05/05 10:23:56;;;;;;;8.70;6.40;;;;;;;20.80;41.06;98195.73;104920;1288;22560;-81
2022/05/05 10:26:26;;;;;;;9.50;6.00;;;;;;;20.91;41.69;98195.05;104922;1288;22611;-81
2022/05/05 10:28:54;;;;;;;7.10;6.30;;;;;;;21.11;42.27;98194.11;104938;1289;22644;-82
2022/05/05 10:31:31;;;;;;;7.50;5.80;;;;;;;21.33;42.18;98187.73;104931;1288;25384;-81
2022/05/05 10:34:06;;;;;;;6.50;5.80;;;;;;;21.56;41.98;98191.87;104956;1288;22667;-82
2022/05/05 10:36:36;;;;;;;8.90;5.50;;;;;;;21.79;41.99;98187.48;105304;1288;25322;-82
2022/05/05 10:39:44;;;;;;;8.30;6.60;;;;;;;22.06;41.76;98185.66;105055;1288;25550;-82
2022/05/05 10:42:17;;;;;;;6.70;5.90;;;;;;;22.38;41.39;98186.48;104416;1294;24426;-83
2022/05/05 10:45:13;;;;;;;8.60;5.90;;;;;;;22.56;41.56;98180.70;105212;1297;22585;-83
2022/05/05 10:47:55;;;;;;;6.60;5.30;;;;;;;22.71;41.29;98184.37;104157;1297;22749;-83
2022/05/05 10:50:33;;;;;;;7.50;5.90;;;;;;;22.85;39.94;98183.91;104679;1294;22920;-82
2022/05/05 10:53:02;;;;;;;7.70;6.10;;;;;;;22.92;39.95;98182.20;105072;1294;22621;-81
2022/05/05 10:55:39;;;;;;;8.60;5.20;;;;;;;22.97;39.85;98178.28;104407;1294;25324;-82
2022/05/05 10:59:04;;;;;;;8.50;6.10;;;;;;;23.10;39.82;98178.52;104382;1294;22576;-82
2022/05/05 11:01:44;;;;;;;10.00;6.40;;;;;;;23.02;39.76;98177.18;104086;1294;22585;-82
2022/05/05 11:04:11;;;;;;;9.10;5.90;;;;;;;23.00;39.93;98173.06;104493;1294;25577;-82
2022/05/05 11:06:45;;;;;;;7.90;6.20;;;;;;;22.90;39.88;98169.38;104354;1294;22582;-83
2022/05/05 11:09:30;;;;;;;8.70;5.80;;;;;;;22.67;39.22;98170.17;104356;1294;22575;-82
2022/05/05 11:12:16;;;;;;;10.00;6.80;;;;;;;22.31;38.41;98170.94;104343;1294;24636;-81
2022/05/05 11:23:49;;;;;;;9.40;6.30;;;;;;;22.87;39.73;98161.18;105007;1288;22788;-82
2022/05/05 11:26:21;;;;;;;9.60;6.30;;;;;;;23.12;38.73;98154.36;104798;1288;22571;-81
2022/05/05 11:28:50;;;;;;;9.70;5.50;;;;;;;23.15;38.05;98155.65;104809;1288;22709;-82
2022/05/05 11:31:21;;;;;;;8.90;5.20;;;;;;;23.10;37.78;98154.49;104781;1288;25601;-81
2022/05/05 11:33:56;;;;;;;5.80;4.90;;;;;;;23.16;37.78;98157.78;104781;1288;22676;-81
2022/05/05 11:36:26;;;;;;;6.50;5.00;;;;;;;23.17;37.08;98159.59;104956;1288;22557;-81
2022/05/05 11:38:55;;;;;;;8.00;6.20;;;;;;;23.16;37.73;98155.65;104851;1288;24417;-82
2022/05/05 11:41:24;;;;;;;7.60;5.30;;;;;;;23.24;37.67;98154.10;104873;1288;22710;-81
2022/05/05 11:46:39;;;;;;;5.80;4.80;;;;;;;23.72;37.95;98142.33;104802;1290;22560;-82
2022/05/05 11:49:08;;;;;;;7.60;5.10;;;;;;;24.05;37.98;98142.12;104885;1288;25528;-82
2022/05/05 11:51:37;;;;;;;7.80;4.90;;;;;;;24.34;37.60;98144.75;104908;1288;24834;-81
2022/05/05 11:54:09;;;;;;;6.70;4.60;;;;;;;24.63;37.36;98142.49;104764;1288;25448;-81
2022/05/05 11:56:46;;;;;;;6.30;4.40;;;;;;;24.73;36.19;98140.65;104891;1288;25269;-82
2022/05/05 12:02:09;;;;;;;6.40;4.50;;;;;;;24.91;36.22;98137.03;104865;1290;22572;-82
2022/05/05 12:04:44;;;;;;;6.30;4.20;;;;;;;25.07;35.70;98140.31;104910;1288;22630;-83
2022/05/05 12:07:19;;;;;;;7.20;5.00;;;;;;;25.20;35.06;98140.99;104815;1288;22551;-83
2022/05/05 12:10:02;;;;;;;6.10;4.50;;;;;;;25.15;34.82;98141.29;104838;1288;22596;-82
2022/05/05 12:12:31;;;;;;;7.10;4.30;;;;;;;24.87;35.12;98141.04;104860;1288;24262;-81
2022/05/05 12:15:01;;;;;;;7.00;4.40;;;;;;;24.74;35.10;98140.66;104868;1288;25333;-81
2022/05/05 12:17:34;;;;;;;5.50;3.90;;;;;;;24.74;35.37;98136.96;104844;1288;22551;-80
2022/05/05 12:20:07;;;;;;;10.10;4.40;;;;;;;24.84;35.06;98134.80;104963;1288;23887;-82
2022/05/05 12:22:39;;;;;;;6.60;4.30;;;;;;;24.79;35.18;98134.94;104727;1288;22624;-81